Sherrill, Arkansas
Current Conditions -  °F | °C
As of 11:53 AM on Thursday 27 Nov 2014 (Local Time) from KPBF Reporting Station
Light Rain Light Rain  
Wind Chill: 38°   Ceiling: Unl
Heat Index: 44°   Visibility: 10mi
Dew Point: 27°   Wind: 12mph
Humidity: 51%   Direction: 360°N
Pressure: 30.54"   Gusts: NA
Location:  34.39°N, 91.95°W
Report Text: KPBF 271753Z AUTO 36010KT 10SM -RA CLR 07/M03 A3054 RMK AO2 SLP343 P0000 60000 T00671028 10067 20011 50006
Loading
Personal Weather Stations






























Interactive Weather Map New forecast layout! Learn more

10-Day Weather Forecast

Advertisements
Track Severe Weather on mobile